sensor_id;sensor_type;location;lat;lon;timestamp;P1;durP1;ratioP1;P2;durP2;ratioP2
12308;SDS011;6217;48.150;17.142;2023-04-03T00:02:17;1.55;;;1.30;;
12308;SDS011;6217;48.150;17.142;2023-04-03T00:06:24;1.40;;;1.30;;
12308;SDS011;6217;48.150;17.142;2023-04-03T00:10:30;1.58;;;1.38;;
12308;SDS011;6217;48.150;17.142;2023-04-03T00:14:36;1.60;;;1.50;;
12308;SDS011;6217;48.150;17.142;2023-04-03T00:18:42;2.42;;;2.22;;
12308;SDS011;6217;48.150;17.142;2023-04-03T00:22:48;2.58;;;1.65;;
12308;SDS011;6217;48.150;17.142;2023-04-03T00:26:54;2.42;;;1.58;;
12308;SDS011;6217;48.150;17.142;2023-04-03T00:31:04;1.50;;;1.40;;
12308;SDS011;6217;48.150;17.142;2023-04-03T00:35:10;2.13;;;1.30;;
12308;SDS011;6217;48.150;17.142;2023-04-03T00:39:16;1.60;;;1.50;;
12308;SDS011;6217;48.150;17.142;2023-04-03T00:43:24;1.40;;;1.30;;
12308;SDS011;6217;48.150;17.142;2023-04-03T00:47:31;1.60;;;1.38;;
12308;SDS011;6217;48.150;17.142;2023-04-03T00:51:37;2.80;;;1.63;;
12308;SDS011;6217;48.150;17.142;2023-04-03T00:55:44;1.70;;;1.35;;
12308;SDS011;6217;48.150;17.142;2023-04-03T00:59:52;3.60;;;2.13;;
12308;SDS011;6217;48.150;17.142;2023-04-03T01:04:04;2.45;;;1.48;;
12308;SDS011;6217;48.150;17.142;2023-04-03T01:08:11;2.17;;;1.60;;
12308;SDS011;6217;48.150;17.142;2023-04-03T01:12:21;1.50;;;1.10;;
12308;SDS011;6217;48.150;17.142;2023-04-03T01:16:39;2.20;;;1.75;;
12308;SDS011;6217;48.150;17.142;2023-04-03T01:25:09;2.10;;;1.50;;
12308;SDS011;6217;48.150;17.142;2023-04-03T01:29:15;1.85;;;1.40;;
12308;SDS011;6217;48.150;17.142;2023-04-03T01:33:22;1.88;;;1.67;;
12308;SDS011;6217;48.150;17.142;2023-04-03T01:37:30;1.50;;;1.40;;
12308;SDS011;6217;48.150;17.142;2023-04-03T01:41:36;2.40;;;1.80;;
12308;SDS011;6217;48.150;17.142;2023-04-03T01:45:57;2.67;;;1.73;;
12308;SDS011;6217;48.150;17.142;2023-04-03T01:50:03;1.60;;;1.40;;
12308;SDS011;6217;48.150;17.142;2023-04-03T01:54:12;2.45;;;2.05;;
12308;SDS011;6217;48.150;17.142;2023-04-03T01:58:18;2.58;;;1.50;;
12308;SDS011;6217;48.150;17.142;2023-04-03T02:02:27;1.55;;;1.45;;
12308;SDS011;6217;48.150;17.142;2023-04-03T02:06:33;2.45;;;1.85;;
12308;SDS011;6217;48.150;17.142;2023-04-03T02:10:40;2.78;;;1.90;;
12308;SDS011;6217;48.150;17.142;2023-04-03T02:14:46;4.65;;;2.75;;
12308;SDS011;6217;48.150;17.142;2023-04-03T02:18:52;2.88;;;1.77;;
12308;SDS011;6217;48.150;17.142;2023-04-03T02:22:58;2.30;;;1.75;;
12308;SDS011;6217;48.150;17.142;2023-04-03T02:27:05;4.20;;;3.08;;
12308;SDS011;6217;48.150;17.142;2023-04-03T02:31:11;2.92;;;2.03;;
12308;SDS011;6217;48.150;17.142;2023-04-03T02:35:18;2.50;;;1.75;;
12308;SDS011;6217;48.150;17.142;2023-04-03T02:39:26;2.90;;;1.70;;
12308;SDS011;6217;48.150;17.142;2023-04-03T02:43:33;2.03;;;1.55;;
12308;SDS011;6217;48.150;17.142;2023-04-03T02:47:39;3.25;;;1.90;;
12308;SDS011;6217;48.150;17.142;2023-04-03T02:51:45;3.83;;;2.55;;
12308;SDS011;6217;48.150;17.142;2023-04-03T02:55:51;2.60;;;2.00;;
12308;SDS011;6217;48.150;17.142;2023-04-03T02:59:57;3.22;;;2.45;;
12308;SDS011;6217;48.150;17.142;2023-04-03T03:04:03;2.58;;;2.30;;
12308;SDS011;6217;48.150;17.142;2023-04-03T03:08:09;2.83;;;2.53;;
12308;SDS011;6217;48.150;17.142;2023-04-03T03:12:15;4.47;;;2.72;;
12308;SDS011;6217;48.150;17.142;2023-04-03T03:16:26;3.05;;;2.45;;
12308;SDS011;6217;48.150;17.142;2023-04-03T03:20:32;2.67;;;2.40;;
12308;SDS011;6217;48.150;17.142;2023-04-03T03:24:38;2.53;;;1.80;;
12308;SDS011;6217;48.150;17.142;2023-04-03T03:28:44;3.83;;;1.92;;
12308;SDS011;6217;48.150;17.142;2023-04-03T03:32:51;3.63;;;1.92;;
12308;SDS011;6217;48.150;17.142;2023-04-03T03:36:57;3.90;;;2.03;;
12308;SDS011;6217;48.150;17.142;2023-04-03T03:41:03;2.03;;;1.83;;
12308;SDS011;6217;48.150;17.142;2023-04-03T03:45:11;2.65;;;1.70;;
12308;SDS011;6217;48.150;17.142;2023-04-03T03:49:17;2.78;;;2.42;;
12308;SDS011;6217;48.150;17.142;2023-04-03T03:53:23;1.98;;;1.83;;
12308;SDS011;6217;48.150;17.142;2023-04-03T03:57:32;2.42;;;2.05;;
12308;SDS011;6217;48.150;17.142;2023-04-03T04:01:39;2.95;;;2.30;;
12308;SDS011;6217;48.150;17.142;2023-04-03T04:05:45;3.30;;;2.28;;
12308;SDS011;6217;48.150;17.142;2023-04-03T04:09:52;6.50;;;2.25;;
12308;SDS011;6217;48.150;17.142;2023-04-03T04:13:58;5.28;;;2.53;;
12308;SDS011;6217;48.150;17.142;2023-04-03T04:18:07;3.60;;;2.40;;
12308;SDS011;6217;48.150;17.142;2023-04-03T04:22:13;4.25;;;2.58;;
12308;SDS011;6217;48.150;17.142;2023-04-03T04:26:20;2.67;;;2.47;;
12308;SDS011;6217;48.150;17.142;2023-04-03T04:30:26;5.38;;;2.63;;
12308;SDS011;6217;48.150;17.142;2023-04-03T04:34:34;6.20;;;3.42;;
12308;SDS011;6217;48.150;17.142;2023-04-03T04:38:41;3.53;;;2.70;;
12308;SDS011;6217;48.150;17.142;2023-04-03T04:42:48;4.68;;;3.15;;
12308;SDS011;6217;48.150;17.142;2023-04-03T04:46:55;3.90;;;2.90;;
12308;SDS011;6217;48.150;17.142;2023-04-03T04:51:01;3.97;;;2.83;;
12308;SDS011;6217;48.150;17.142;2023-04-03T04:55:08;3.10;;;2.67;;
12308;SDS011;6217;48.150;17.142;2023-04-03T04:59:14;3.80;;;3.22;;
12308;SDS011;6217;48.150;17.142;2023-04-03T05:03:21;4.78;;;3.60;;
12308;SDS011;6217;48.150;17.142;2023-04-03T05:07:27;3.55;;;3.20;;
12308;SDS011;6217;48.150;17.142;2023-04-03T05:11:34;4.53;;;3.85;;
12308;SDS011;6217;48.150;17.142;2023-04-03T05:15:40;5.72;;;3.22;;
12308;SDS011;6217;48.150;17.142;2023-04-03T05:19:47;6.10;;;2.50;;
12308;SDS011;6217;48.150;17.142;2023-04-03T05:23:54;3.60;;;2.70;;
12308;SDS011;6217;48.150;17.142;2023-04-03T05:28:01;2.90;;;2.33;;
12308;SDS011;6217;48.150;17.142;2023-04-03T05:32:07;2.97;;;2.67;;
12308;SDS011;6217;48.150;17.142;2023-04-03T05:36:13;4.90;;;2.53;;
12308;SDS011;6217;48.150;17.142;2023-04-03T05:40:23;4.95;;;2.72;;
12308;SDS011;6217;48.150;17.142;2023-04-03T05:44:32;3.30;;;2.28;;
12308;SDS011;6217;48.150;17.142;2023-04-03T05:48:38;4.30;;;2.33;;
12308;SDS011;6217;48.150;17.142;2023-04-03T05:52:45;3.90;;;2.00;;
12308;SDS011;6217;48.150;17.142;2023-04-03T05:56:55;3.40;;;2.42;;
12308;SDS011;6217;48.150;17.142;2023-04-03T06:01:03;4.07;;;2.33;;
12308;SDS011;6217;48.150;17.142;2023-04-03T06:05:11;2.25;;;2.05;;
12308;SDS011;6217;48.150;17.142;2023-04-03T06:09:19;3.53;;;2.72;;
12308;SDS011;6217;48.150;17.142;2023-04-03T06:13:27;3.40;;;2.85;;
12308;SDS011;6217;48.150;17.142;2023-04-03T06:17:33;4.70;;;2.72;;
12308;SDS011;6217;48.150;17.142;2023-04-03T06:21:39;4.10;;;2.22;;
12308;SDS011;6217;48.150;17.142;2023-04-03T06:25:45;5.07;;;3.33;;
12308;SDS011;6217;48.150;17.142;2023-04-03T06:29:52;5.50;;;2.67;;
12308;SDS011;6217;48.150;17.142;2023-04-03T06:33:58;3.85;;;2.58;;
12308;SDS011;6217;48.150;17.142;2023-04-03T06:38:04;3.08;;;2.15;;
12308;SDS011;6217;48.150;17.142;2023-04-03T06:42:14;2.97;;;1.90;;
12308;SDS011;6217;48.150;17.142;2023-04-03T06:46:30;3.15;;;2.28;;
12308;SDS011;6217;48.150;17.142;2023-04-03T06:50:36;3.15;;;2.05;;
12308;SDS011;6217;48.150;17.142;2023-04-03T06:54:42;2.95;;;2.15;;
12308;SDS011;6217;48.150;17.142;2023-04-03T06:58:48;3.13;;;1.83;;
12308;SDS011;6217;48.150;17.142;2023-04-03T07:02:56;2.92;;;2.47;;
12308;SDS011;6217;48.150;17.142;2023-04-03T07:07:02;2.72;;;2.40;;
12308;SDS011;6217;48.150;17.142;2023-04-03T07:11:09;3.80;;;2.17;;
12308;SDS011;6217;48.150;17.142;2023-04-03T07:15:16;3.75;;;1.85;;
12308;SDS011;6217;48.150;17.142;2023-04-03T07:19:22;2.28;;;1.95;;
12308;SDS011;6217;48.150;17.142;2023-04-03T07:23:29;3.10;;;2.50;;
12308;SDS011;6217;48.150;17.142;2023-04-03T07:27:36;3.35;;;2.10;;
12308;SDS011;6217;48.150;17.142;2023-04-03T07:31:42;2.67;;;1.70;;
12308;SDS011;6217;48.150;17.142;2023-04-03T07:35:49;2.33;;;2.13;;
12308;SDS011;6217;48.150;17.142;2023-04-03T07:39:56;2.30;;;1.58;;
12308;SDS011;6217;48.150;17.142;2023-04-03T07:44:04;2.72;;;1.40;;
12308;SDS011;6217;48.150;17.142;2023-04-03T07:48:10;1.23;;;1.13;;
12308;SDS011;6217;48.150;17.142;2023-04-03T07:52:17;2.03;;;1.20;;
12308;SDS011;6217;48.150;17.142;2023-04-03T07:56:23;4.00;;;1.30;;
12308;SDS011;6217;48.150;17.142;2023-04-03T08:00:30;2.83;;;1.25;;
12308;SDS011;6217;48.150;17.142;2023-04-03T08:04:36;2.03;;;1.23;;
12308;SDS011;6217;48.150;17.142;2023-04-03T08:08:42;1.83;;;1.17;;
12308;SDS011;6217;48.150;17.142;2023-04-03T08:12:47;1.95;;;1.15;;
12308;SDS011;6217;48.150;17.142;2023-04-03T08:16:56;2.58;;;1.40;;
12308;SDS011;6217;48.150;17.142;2023-04-03T08:21:07;3.20;;;1.60;;
12308;SDS011;6217;48.150;17.142;2023-04-03T08:25:14;4.67;;;1.33;;
12308;SDS011;6217;48.150;17.142;2023-04-03T08:29:20;3.92;;;1.02;;
12308;SDS011;6217;48.150;17.142;2023-04-03T08:33:27;3.08;;;1.30;;
12308;SDS011;6217;48.150;17.142;2023-04-03T08:37:34;3.60;;;1.70;;
12308;SDS011;6217;48.150;17.142;2023-04-03T08:41:42;1.45;;;1.10;;
12308;SDS011;6217;48.150;17.142;2023-04-03T08:45:52;1.38;;;1.20;;
12308;SDS011;6217;48.150;17.142;2023-04-03T08:50:02;1.98;;;1.33;;
12308;SDS011;6217;48.150;17.142;2023-04-03T08:54:18;3.83;;;1.50;;
12308;SDS011;6217;48.150;17.142;2023-04-03T08:58:40;3.53;;;1.20;;
12308;SDS011;6217;48.150;17.142;2023-04-03T09:02:54;8.27;;;1.80;;
12308;SDS011;6217;48.150;17.142;2023-04-03T09:07:07;2.40;;;1.38;;
12308;SDS011;6217;48.150;17.142;2023-04-03T09:11:27;1.00;;;1.00;;
12308;SDS011;6217;48.150;17.142;2023-04-03T09:15:57;1.67;;;1.10;;
12308;SDS011;6217;48.150;17.142;2023-04-03T09:24:43;2.10;;;1.27;;
12308;SDS011;6217;48.150;17.142;2023-04-03T09:28:58;1.65;;;1.27;;
12308;SDS011;6217;48.150;17.142;2023-04-03T09:33:09;4.93;;;1.67;;
12308;SDS011;6217;48.150;17.142;2023-04-03T09:37:33;2.67;;;1.20;;
12308;SDS011;6217;48.150;17.142;2023-04-03T09:42:03;1.98;;;1.08;;
12308;SDS011;6217;48.150;17.142;2023-04-03T09:50:35;1.38;;;1.05;;
12308;SDS011;6217;48.150;17.142;2023-04-03T09:54:41;1.98;;;1.67;;
12308;SDS011;6217;48.150;17.142;2023-04-03T09:58:52;3.83;;;1.17;;
12308;SDS011;6217;48.150;17.142;2023-04-03T10:03:26;3.90;;;1.30;;
12308;SDS011;6217;48.150;17.142;2023-04-03T10:07:37;2.08;;;1.17;;
12308;SDS011;6217;48.150;17.142;2023-04-03T10:12:29;1.92;;;1.20;;
12308;SDS011;6217;48.150;17.142;2023-04-03T10:16:15;2.72;;;1.27;;
12308;SDS011;6217;48.150;17.142;2023-04-03T10:29:04;6.35;;;1.20;;
12308;SDS011;6217;48.150;17.142;2023-04-03T10:33:39;4.75;;;1.38;;
12308;SDS011;6217;48.150;17.142;2023-04-03T10:38:15;2.60;;;1.10;;
12308;SDS011;6217;48.150;17.142;2023-04-03T10:46:53;3.17;;;1.38;;
12308;SDS011;6217;48.150;17.142;2023-04-03T10:51:10;1.33;;;1.20;;
12308;SDS011;6217;48.150;17.142;2023-04-03T10:55:50;2.03;;;1.40;;
12308;SDS011;6217;48.150;17.142;2023-04-03T11:00:22;2.63;;;1.52;;
12308;SDS011;6217;48.150;17.142;2023-04-03T11:04:37;1.58;;;1.38;;
12308;SDS011;6217;48.150;17.142;2023-04-03T11:09:02;3.70;;;1.40;;
12308;SDS011;6217;48.150;17.142;2023-04-03T11:13:27;2.40;;;1.88;;
12308;SDS011;6217;48.150;17.142;2023-04-03T11:17:59;1.17;;;1.05;;
12308;SDS011;6217;48.150;17.142;2023-04-03T11:22:21;1.40;;;1.27;;
12308;SDS011;6217;48.150;17.142;2023-04-03T11:26:36;2.60;;;1.13;;
12308;SDS011;6217;48.150;17.142;2023-04-03T11:34:59;1.33;;;1.23;;
12308;SDS011;6217;48.150;17.142;2023-04-03T11:39:30;2.42;;;1.58;;
12308;SDS011;6217;48.150;17.142;2023-04-03T11:43:41;3.78;;;1.40;;
12308;SDS011;6217;48.150;17.142;2023-04-03T11:48:41;3.05;;;1.38;;
12308;SDS011;6217;48.150;17.142;2023-04-03T11:56:46;1.98;;;1.20;;
12308;SDS011;6217;48.150;17.142;2023-04-03T12:00:56;1.52;;;1.40;;
12308;SDS011;6217;48.150;17.142;2023-04-03T12:05:25;2.38;;;1.60;;
12308;SDS011;6217;48.150;17.142;2023-04-03T12:09:54;2.60;;;2.00;;
12308;SDS011;6217;48.150;17.142;2023-04-03T12:14:04;1.88;;;1.23;;
12308;SDS011;6217;48.150;17.142;2023-04-03T12:27:43;3.45;;;1.70;;
12308;SDS011;6217;48.150;17.142;2023-04-03T12:32:04;3.75;;;1.50;;
12308;SDS011;6217;48.150;17.142;2023-04-03T12:41:11;4.82;;;2.25;;
12308;SDS011;6217;48.150;17.142;2023-04-03T12:45:28;3.15;;;1.70;;
12308;SDS011;6217;48.150;17.142;2023-04-03T12:49:46;3.47;;;2.08;;
12308;SDS011;6217;48.150;17.142;2023-04-03T12:53:57;2.28;;;2.05;;
12308;SDS011;6217;48.150;17.142;2023-04-03T12:58:27;1.70;;;1.60;;
12308;SDS011;6217;48.150;17.142;2023-04-03T13:02:35;7.53;;;2.00;;
12308;SDS011;6217;48.150;17.142;2023-04-03T13:06:42;1.52;;;1.33;;
12308;SDS011;6217;48.150;17.142;2023-04-03T13:10:54;3.00;;;1.80;;
12308;SDS011;6217;48.150;17.142;2023-04-03T13:15:16;2.92;;;1.55;;
12308;SDS011;6217;48.150;17.142;2023-04-03T13:19:35;3.15;;;1.73;;
12308;SDS011;6217;48.150;17.142;2023-04-03T13:23:43;1.92;;;1.65;;
12308;SDS011;6217;48.150;17.142;2023-04-03T13:27:53;3.08;;;1.38;;
12308;SDS011;6217;48.150;17.142;2023-04-03T13:32:01;4.95;;;1.60;;
12308;SDS011;6217;48.150;17.142;2023-04-03T13:36:19;4.75;;;1.50;;
12308;SDS011;6217;48.150;17.142;2023-04-03T13:40:29;2.50;;;1.33;;
12308;SDS011;6217;48.150;17.142;2023-04-03T13:44:36;3.78;;;1.55;;
12308;SDS011;6217;48.150;17.142;2023-04-03T13:48:45;2.10;;;1.70;;
12308;SDS011;6217;48.150;17.142;2023-04-03T13:53:00;2.20;;;1.27;;
12308;SDS011;6217;48.150;17.142;2023-04-03T13:57:17;6.20;;;1.77;;
12308;SDS011;6217;48.150;17.142;2023-04-03T14:01:23;4.32;;;1.75;;
12308;SDS011;6217;48.150;17.142;2023-04-03T14:05:30;2.17;;;1.17;;
12308;SDS011;6217;48.150;17.142;2023-04-03T14:09:36;1.58;;;1.20;;
12308;SDS011;6217;48.150;17.142;2023-04-03T14:13:43;2.45;;;1.00;;
12308;SDS011;6217;48.150;17.142;2023-04-03T14:17:50;1.67;;;0.85;;
12308;SDS011;6217;48.150;17.142;2023-04-03T14:21:56;2.50;;;0.95;;
12308;SDS011;6217;48.150;17.142;2023-04-03T14:26:08;1.83;;;1.05;;
12308;SDS011;6217;48.150;17.142;2023-04-03T14:30:35;2.72;;;1.02;;
12308;SDS011;6217;48.150;17.142;2023-04-03T14:39:16;1.80;;;1.00;;
12308;SDS011;6217;48.150;17.142;2023-04-03T14:43:23;1.75;;;1.23;;
12308;SDS011;6217;48.150;17.142;2023-04-03T14:47:30;2.60;;;1.10;;
12308;SDS011;6217;48.150;17.142;2023-04-03T14:51:36;2.95;;;2.13;;
12308;SDS011;6217;48.150;17.142;2023-04-03T14:55:44;1.40;;;1.00;;
12308;SDS011;6217;48.150;17.142;2023-04-03T14:59:51;2.20;;;1.25;;
12308;SDS011;6217;48.150;17.142;2023-04-03T15:03:57;4.15;;;1.00;;
12308;SDS011;6217;48.150;17.142;2023-04-03T15:08:03;1.45;;;0.93;;
12308;SDS011;6217;48.150;17.142;2023-04-03T15:12:09;2.50;;;1.00;;
12308;SDS011;6217;48.150;17.142;2023-04-03T15:16:16;3.13;;;1.00;;
12308;SDS011;6217;48.150;17.142;2023-04-03T15:20:25;1.75;;;1.00;;
12308;SDS011;6217;48.150;17.142;2023-04-03T15:24:33;1.85;;;1.10;;
12308;SDS011;6217;48.150;17.142;2023-04-03T15:28:39;2.42;;;1.55;;
12308;SDS011;6217;48.150;17.142;2023-04-03T15:32:47;2.67;;;1.10;;
12308;SDS011;6217;48.150;17.142;2023-04-03T15:36:53;1.60;;;0.93;;
12308;SDS011;6217;48.150;17.142;2023-04-03T15:40:59;2.15;;;0.98;;
12308;SDS011;6217;48.150;17.142;2023-04-03T15:45:06;2.28;;;0.90;;
12308;SDS011;6217;48.150;17.142;2023-04-03T15:49:13;3.65;;;1.02;;
12308;SDS011;6217;48.150;17.142;2023-04-03T15:53:20;2.10;;;1.05;;
12308;SDS011;6217;48.150;17.142;2023-04-03T15:57:26;4.57;;;1.08;;
12308;SDS011;6217;48.150;17.142;2023-04-03T16:01:32;2.25;;;0.80;;
12308;SDS011;6217;48.150;17.142;2023-04-03T16:09:47;4.13;;;1.25;;
12308;SDS011;6217;48.150;17.142;2023-04-03T16:13:54;1.77;;;0.98;;
12308;SDS011;6217;48.150;17.142;2023-04-03T16:18:00;1.63;;;1.13;;
12308;SDS011;6217;48.150;17.142;2023-04-03T16:22:07;2.42;;;1.45;;
12308;SDS011;6217;48.150;17.142;2023-04-03T16:26:13;1.15;;;1.00;;
12308;SDS011;6217;48.150;17.142;2023-04-03T16:30:19;1.10;;;0.88;;
12308;SDS011;6217;48.150;17.142;2023-04-03T16:34:25;4.07;;;1.13;;
12308;SDS011;6217;48.150;17.142;2023-04-03T16:38:32;2.53;;;1.05;;
12308;SDS011;6217;48.150;17.142;2023-04-03T16:42:38;1.50;;;1.00;;
12308;SDS011;6217;48.150;17.142;2023-04-03T16:46:44;3.28;;;1.10;;
12308;SDS011;6217;48.150;17.142;2023-04-03T16:50:50;1.33;;;0.90;;
12308;SDS011;6217;48.150;17.142;2023-04-03T16:54:58;1.13;;;0.98;;
12308;SDS011;6217;48.150;17.142;2023-04-03T16:59:04;1.35;;;1.00;;
12308;SDS011;6217;48.150;17.142;2023-04-03T17:03:11;3.67;;;1.10;;
12308;SDS011;6217;48.150;17.142;2023-04-03T17:07:17;1.15;;;0.85;;
12308;SDS011;6217;48.150;17.142;2023-04-03T17:11:28;1.73;;;1.60;;
12308;SDS011;6217;48.150;17.142;2023-04-03T17:15:35;1.42;;;1.00;;
12308;SDS011;6217;48.150;17.142;2023-04-03T17:19:41;3.50;;;1.90;;
12308;SDS011;6217;48.150;17.142;2023-04-03T17:23:52;2.28;;;1.25;;
12308;SDS011;6217;48.150;17.142;2023-04-03T17:28:02;1.95;;;1.00;;
12308;SDS011;6217;48.150;17.142;2023-04-03T17:32:08;4.20;;;1.10;;
12308;SDS011;6217;48.150;17.142;2023-04-03T17:36:14;1.17;;;1.00;;
12308;SDS011;6217;48.150;17.142;2023-04-03T17:40:20;4.15;;;1.10;;
12308;SDS011;6217;48.150;17.142;2023-04-03T17:44:26;1.77;;;1.00;;
12308;SDS011;6217;48.150;17.142;2023-04-03T17:48:32;2.67;;;1.13;;
12308;SDS011;6217;48.150;17.142;2023-04-03T17:52:39;2.47;;;1.10;;
12308;SDS011;6217;48.150;17.142;2023-04-03T17:56:46;3.10;;;2.17;;
12308;SDS011;6217;48.150;17.142;2023-04-03T18:00:56;2.85;;;1.20;;
12308;SDS011;6217;48.150;17.142;2023-04-03T18:05:02;1.70;;;1.20;;
12308;SDS011;6217;48.150;17.142;2023-04-03T18:09:10;1.50;;;0.95;;
12308;SDS011;6217;48.150;17.142;2023-04-03T18:13:25;1.45;;;0.90;;
12308;SDS011;6217;48.150;17.142;2023-04-03T18:17:32;1.77;;;1.10;;
12308;SDS011;6217;48.150;17.142;2023-04-03T18:21:39;5.30;;;1.30;;
12308;SDS011;6217;48.150;17.142;2023-04-03T18:25:45;1.88;;;1.05;;
12308;SDS011;6217;48.150;17.142;2023-04-03T18:29:55;2.92;;;1.00;;
12308;SDS011;6217;48.150;17.142;2023-04-03T18:34:08;2.65;;;1.33;;
12308;SDS011;6217;48.150;17.142;2023-04-03T18:38:14;2.75;;;0.90;;
12308;SDS011;6217;48.150;17.142;2023-04-03T18:42:21;1.58;;;1.10;;
12308;SDS011;6217;48.150;17.142;2023-04-03T18:46:30;3.70;;;1.38;;
12308;SDS011;6217;48.150;17.142;2023-04-03T18:50:37;4.07;;;1.30;;
12308;SDS011;6217;48.150;17.142;2023-04-03T18:54:43;2.00;;;1.02;;
12308;SDS011;6217;48.150;17.142;2023-04-03T18:58:49;3.28;;;1.20;;
12308;SDS011;6217;48.150;17.142;2023-04-03T19:02:55;1.85;;;1.02;;
12308;SDS011;6217;48.150;17.142;2023-04-03T19:07:02;1.55;;;1.30;;
12308;SDS011;6217;48.150;17.142;2023-04-03T19:11:10;2.00;;;1.10;;
12308;SDS011;6217;48.150;17.142;2023-04-03T19:15:17;2.03;;;1.30;;
12308;SDS011;6217;48.150;17.142;2023-04-03T19:19:25;3.92;;;1.30;;
12308;SDS011;6217;48.150;17.142;2023-04-03T19:23:31;2.55;;;1.20;;
12308;SDS011;6217;48.150;17.142;2023-04-03T19:27:37;3.95;;;1.17;;
12308;SDS011;6217;48.150;17.142;2023-04-03T19:31:44;3.58;;;2.00;;
12308;SDS011;6217;48.150;17.142;2023-04-03T19:35:50;1.92;;;1.13;;
12308;SDS011;6217;48.150;17.142;2023-04-03T19:39:57;3.80;;;1.40;;
12308;SDS011;6217;48.150;17.142;2023-04-03T19:44:03;2.58;;;1.20;;
12308;SDS011;6217;48.150;17.142;2023-04-03T19:48:11;2.55;;;1.40;;
12308;SDS011;6217;48.150;17.142;2023-04-03T19:52:17;2.15;;;1.20;;
12308;SDS011;6217;48.150;17.142;2023-04-03T19:56:24;1.42;;;1.10;;
12308;SDS011;6217;48.150;17.142;2023-04-03T20:00:30;1.27;;;1.00;;
12308;SDS011;6217;48.150;17.142;2023-04-03T20:04:36;3.22;;;1.27;;
12308;SDS011;6217;48.150;17.142;2023-04-03T20:08:42;4.88;;;1.50;;
12308;SDS011;6217;48.150;17.142;2023-04-03T20:12:49;3.35;;;1.20;;
12308;SDS011;6217;48.150;17.142;2023-04-03T20:16:55;2.85;;;1.40;;
12308;SDS011;6217;48.150;17.142;2023-04-03T20:21:02;4.90;;;1.40;;
12308;SDS011;6217;48.150;17.142;2023-04-03T20:25:10;4.32;;;1.60;;
12308;SDS011;6217;48.150;17.142;2023-04-03T20:29:18;8.70;;;1.25;;
12308;SDS011;6217;48.150;17.142;2023-04-03T20:33:27;4.35;;;1.23;;
12308;SDS011;6217;48.150;17.142;2023-04-03T20:37:34;2.28;;;1.70;;
12308;SDS011;6217;48.150;17.142;2023-04-03T20:41:40;2.08;;;1.35;;
12308;SDS011;6217;48.150;17.142;2023-04-03T20:45:46;3.85;;;1.58;;
12308;SDS011;6217;48.150;17.142;2023-04-03T20:49:52;2.25;;;1.73;;
12308;SDS011;6217;48.150;17.142;2023-04-03T20:53:58;5.00;;;1.73;;
12308;SDS011;6217;48.150;17.142;2023-04-03T20:58:11;3.83;;;1.40;;
12308;SDS011;6217;48.150;17.142;2023-04-03T21:02:17;4.40;;;1.40;;
12308;SDS011;6217;48.150;17.142;2023-04-03T21:20:37;1.98;;;1.30;;
12308;SDS011;6217;48.150;17.142;2023-04-03T21:24:43;2.92;;;1.13;;
12308;SDS011;6217;48.150;17.142;2023-04-03T21:28:50;1.75;;;1.33;;
12308;SDS011;6217;48.150;17.142;2023-04-03T21:32:56;2.80;;;1.30;;
12308;SDS011;6217;48.150;17.142;2023-04-03T21:37:03;2.47;;;2.00;;
12308;SDS011;6217;48.150;17.142;2023-04-03T21:41:13;2.53;;;1.35;;
12308;SDS011;6217;48.150;17.142;2023-04-03T21:45:19;3.88;;;1.65;;
12308;SDS011;6217;48.150;17.142;2023-04-03T21:49:26;3.38;;;1.70;;
12308;SDS011;6217;48.150;17.142;2023-04-03T21:53:32;2.67;;;1.70;;
12308;SDS011;6217;48.150;17.142;2023-04-03T21:57:38;2.33;;;1.42;;
12308;SDS011;6217;48.150;17.142;2023-04-03T22:01:45;6.43;;;1.65;;
12308;SDS011;6217;48.150;17.142;2023-04-03T22:05:51;3.75;;;1.88;;
12308;SDS011;6217;48.150;17.142;2023-04-03T22:09:58;2.50;;;1.27;;
12308;SDS011;6217;48.150;17.142;2023-04-03T22:14:03;3.35;;;1.58;;
12308;SDS011;6217;48.150;17.142;2023-04-03T22:18:09;3.00;;;1.33;;
12308;SDS011;6217;48.150;17.142;2023-04-03T22:22:15;2.47;;;1.30;;
12308;SDS011;6217;48.150;17.142;2023-04-03T22:26:21;1.85;;;1.35;;
12308;SDS011;6217;48.150;17.142;2023-04-03T22:30:27;2.83;;;1.48;;
12308;SDS011;6217;48.150;17.142;2023-04-03T22:34:33;2.95;;;1.80;;
12308;SDS011;6217;48.150;17.142;2023-04-03T22:38:46;4.30;;;1.70;;
12308;SDS011;6217;48.150;17.142;2023-04-03T22:42:52;6.03;;;2.05;;
12308;SDS011;6217;48.150;17.142;2023-04-03T22:46:58;3.22;;;1.60;;
12308;SDS011;6217;48.150;17.142;2023-04-03T22:51:04;3.58;;;1.38;;
12308;SDS011;6217;48.150;17.142;2023-04-03T22:55:13;3.88;;;1.27;;
12308;SDS011;6217;48.150;17.142;2023-04-03T22:59:21;3.28;;;1.83;;
12308;SDS011;6217;48.150;17.142;2023-04-03T23:03:30;3.28;;;1.23;;
12308;SDS011;6217;48.150;17.142;2023-04-03T23:07:36;3.40;;;1.30;;
12308;SDS011;6217;48.150;17.142;2023-04-03T23:11:42;6.80;;;2.05;;
12308;SDS011;6217;48.150;17.142;2023-04-03T23:15:56;2.42;;;1.40;;
12308;SDS011;6217;48.150;17.142;2023-04-03T23:20:04;2.63;;;1.17;;
12308;SDS011;6217;48.150;17.142;2023-04-03T23:24:11;1.40;;;1.10;;
12308;SDS011;6217;48.150;17.142;2023-04-03T23:28:18;2.47;;;1.10;;
12308;SDS011;6217;48.150;17.142;2023-04-03T23:32:24;2.90;;;1.33;;
12308;SDS011;6217;48.150;17.142;2023-04-03T23:36:30;4.13;;;1.35;;
12308;SDS011;6217;48.150;17.142;2023-04-03T23:40:36;2.45;;;1.00;;
12308;SDS011;6217;48.150;17.142;2023-04-03T23:44:42;3.40;;;1.10;;
12308;SDS011;6217;48.150;17.142;2023-04-03T23:48:47;2.17;;;1.20;;
12308;SDS011;6217;48.150;17.142;2023-04-03T23:52:53;3.35;;;1.25;;
12308;SDS011;6217;48.150;17.142;2023-04-03T23:56:59;1.85;;;1.25;;
